Lynn Lake Airport
CYYL : now visible

Airfield :











YOU CAN JOIN US ON...

 
LOGIN :

Register | Disclaimer

   EN    FR    IT 

 









Legend :    VFR   Marginal VFR   IFR   Intensive IFR   Very Intensive IFR
Visi :
Ceiling :
>= 8 km
>= 3000ft
5 to 8 km
1000 to 3000 ft
1500m to 5 km
500 to 1000 ft
800 to 1500m
200 to 500 ft
< 800m
< 200 ft
Symbols :   Thunderstorms  Fog  Heavy snow  Heavy precipitations  Wind > 20 kt






- Airport Elevation : 1170 ft
- IATA code : YYL


CYYL - Lynn Lake

CURRENT METAR :
  • 281140Z AUTO 06011G17KT 5SM -SN FEW015 OVC027 M09/M10 A2976 RMK SLP108

EXPIRED METARs :
  • 281100Z AUTO 07011G17KT 3SM -SN OVC016 M09/M10 A2976 RMK SLP110
  • 281044Z AUTO 08012G18KT 3SM -SN BKN016 OVC025 M09/M10 A2976 RMK SLP108
  • 281031Z AUTO 07011G16KT 2 1/2SM -SN BKN016 OVC023 M09/M10 A2976 RMK SLP109
  • 281020Z AUTO 07011G21KT 3SM -SN SCT012 OVC021 M09/M10 A2976 RMK SLP108
  • 281009Z AUTO 07014G20KT 2SM -SN OVC012 M08/M10 A2976 RMK SLP108
  • 280912Z AUTO 07011G17KT 9SM -SN OVC012 M08/M10 A2976 RMK SLP110

TAF TAF CYYL
Valid from the 28 at 07:00 until the 28 at 19:00 UTC


280640Z 2807/2819 10012G22KT P6SM SCT007 OVC015
TEMPO 2807/2815 5SM -SN BR OVC007
FM281500 08015G25KT P6SM SCT010 OVC025
TEMPO 2815/2819 5SM -SN BR OVC010
PROB30 2815/2819 OVC006 RMK FCST BASED ON AUTO OBS. NXT FCST BY 281300Z
CZWG FIR / North America



MET'MAP, your aeronautical weather chart ! - Copyright ORBIFLY December 2007 - Disclaimer

ORBIFLY MET'MAP TEAM :

Programming & Development : Alexandra Zaïnal
Original concept : Baudouin d'Aumeries
Technical & hardware support : Manuel Goepfert
Assistance : Marc-Olivier Méhu




SOURCES & CREDITS :

   NOAA       Earth
Advisory